GMART KCNC-KDSM
Flight info
| Callsign | GMART |
|---|---|
| Flight time | 0h 23m |
| Altitude | 2500 |
| Route | KCNC / LACONA / HARTFORD / /KDSM |
| Aircraft | C172/L-VGD/C |
Departure
| Time | 2026-04-27 08:37 |
|---|---|
| Airport | Chariton Municipal Airport (KCNC) |
Arrival
| Time | 2026-04-27 09:00 |
|---|---|
| Airport | Des Moines International Airport (KDSM) |
| Time | Latitude | Longitude | Altitude | Speed | Heading |
|---|---|---|---|---|---|
| 2026-04-27 08:23 | 41.01736 | -93.36243 | 1051 ft | 0 kts | 0° |
| 2026-04-27 08:33 | 41.01737 | -93.36243 | 1051 ft | 3 kts | 358° |
| 2026-04-27 08:33 | 41.01769 | -93.36326 | 1051 ft | 12 kts | 353° |
| 2026-04-27 08:33 | 41.01847 | -93.36329 | 1051 ft | 13 kts | 9° |
| 2026-04-27 08:34 | 41.01996 | -93.36324 | 1052 ft | 23 kts | 1° |
| 2026-04-27 08:34 | 41.02062 | -93.36323 | 1053 ft | 8 kts | 16° |
| 2026-04-27 08:34 | 41.02066 | -93.36266 | 1052 ft | 0 kts | 102° |
| 2026-04-27 08:35 | 41.02043 | -93.36129 | 1052 ft | 40 kts | 102° |
| 2026-04-27 08:36 | 41.01963 | -93.35580 | 1083 ft | 76 kts | 99° |
| 2026-04-27 08:36 | 41.01851 | -93.34857 | 1224 ft | 85 kts | 102° |
| 2026-04-27 08:36 | 41.01741 | -93.34050 | 1386 ft | 92 kts | 101° |
| 2026-04-27 08:36 | 41.01626 | -93.33194 | 1579 ft | 97 kts | 101° |
| 2026-04-27 08:37 | 41.01521 | -93.32303 | 1777 ft | 99 kts | 91° |
| 2026-04-27 08:37 | 41.01958 | -93.31665 | 1974 ft | 105 kts | 6° |
| 2026-04-27 08:37 | 41.02664 | -93.31865 | 2186 ft | 106 kts | 343° |
| 2026-04-27 08:37 | 41.03380 | -93.32127 | 2382 ft | 106 kts | 344° |
| 2026-04-27 08:38 | 41.04085 | -93.32388 | 2577 ft | 105 kts | 343° |
| 2026-04-27 08:38 | 41.04838 | -93.32664 | 2602 ft | 119 kts | 344° |
| 2026-04-27 08:38 | 41.05667 | -93.32969 | 2610 ft | 127 kts | 344° |
| 2026-04-27 08:38 | 41.06511 | -93.33307 | 2608 ft | 127 kts | 339° |
| 2026-04-27 08:39 | 41.07347 | -93.33745 | 2603 ft | 133 kts | 339° |
| 2026-04-27 08:39 | 41.08207 | -93.34187 | 2603 ft | 134 kts | 339° |
| 2026-04-27 08:39 | 41.09096 | -93.34593 | 2596 ft | 136 kts | 341° |
| 2026-04-27 08:39 | 41.09977 | -93.34988 | 2593 ft | 131 kts | 341° |
| 2026-04-27 08:40 | 41.10819 | -93.35367 | 2587 ft | 129 kts | 341° |
| 2026-04-27 08:40 | 41.11671 | -93.35729 | 2604 ft | 129 kts | 343° |
| 2026-04-27 08:40 | 41.12552 | -93.36079 | 2596 ft | 133 kts | 343° |
| 2026-04-27 08:40 | 41.13439 | -93.36435 | 2607 ft | 135 kts | 343° |
| 2026-04-27 08:41 | 41.14327 | -93.36764 | 2590 ft | 129 kts | 345° |
| 2026-04-27 08:41 | 41.15178 | -93.37063 | 2590 ft | 125 kts | 345° |
| 2026-04-27 08:41 | 41.16009 | -93.37355 | 2592 ft | 122 kts | 345° |
| 2026-04-27 08:41 | 41.16827 | -93.37640 | 2592 ft | 121 kts | 345° |
| 2026-04-27 08:42 | 41.17659 | -93.37932 | 2608 ft | 129 kts | 345° |
| 2026-04-27 08:42 | 41.18545 | -93.38227 | 2605 ft | 131 kts | 348° |
| 2026-04-27 08:42 | 41.19452 | -93.38384 | 2604 ft | 133 kts | 355° |
| 2026-04-27 08:42 | 41.20369 | -93.38487 | 2594 ft | 130 kts | 356° |
| 2026-04-27 08:43 | 41.21255 | -93.38554 | 2595 ft | 125 kts | 358° |
| 2026-04-27 08:43 | 41.22146 | -93.38625 | 2596 ft | 130 kts | 357° |
| 2026-04-27 08:43 | 41.23034 | -93.38694 | 2597 ft | 127 kts | 356° |
| 2026-04-27 08:43 | 41.23932 | -93.38754 | 2604 ft | 131 kts | 358° |
| 2026-04-27 08:44 | 41.24856 | -93.38824 | 2590 ft | 132 kts | 357° |
| 2026-04-27 08:44 | 41.25744 | -93.38888 | 2590 ft | 125 kts | 357° |
| 2026-04-27 08:44 | 41.26595 | -93.38950 | 2594 ft | 121 kts | 357° |
| 2026-04-27 08:44 | 41.27425 | -93.39011 | 2598 ft | 119 kts | 357° |
| 2026-04-27 08:45 | 41.28251 | -93.39069 | 2601 ft | 118 kts | 358° |
| 2026-04-27 08:45 | 41.29063 | -93.39128 | 2609 ft | 121 kts | 357° |
| 2026-04-27 08:45 | 41.29921 | -93.39191 | 2611 ft | 126 kts | 357° |
| 2026-04-27 08:45 | 41.30792 | -93.39252 | 2612 ft | 126 kts | 357° |
| 2026-04-27 08:46 | 41.31658 | -93.39314 | 2606 ft | 123 kts | 357° |
| 2026-04-27 08:46 | 41.32504 | -93.39374 | 2615 ft | 123 kts | 357° |
| 2026-04-27 08:46 | 41.33365 | -93.39435 | 2608 ft | 124 kts | 357° |
| 2026-04-27 08:46 | 41.34224 | -93.39487 | 2617 ft | 125 kts | 358° |
| 2026-04-27 08:47 | 41.35102 | -93.39532 | 2616 ft | 126 kts | 357° |
| 2026-04-27 08:47 | 41.35971 | -93.39580 | 2605 ft | 123 kts | 358° |
| 2026-04-27 08:47 | 41.36829 | -93.39615 | 2616 ft | 126 kts | 358° |
| 2026-04-27 08:47 | 41.37718 | -93.39654 | 2616 ft | 131 kts | 358° |
| 2026-04-27 08:48 | 41.38638 | -93.39699 | 2604 ft | 132 kts | 358° |
| 2026-04-27 08:48 | 41.39529 | -93.39742 | 2600 ft | 125 kts | 358° |
| 2026-04-27 08:48 | 41.40384 | -93.39782 | 2599 ft | 121 kts | 358° |
| 2026-04-27 08:48 | 41.41222 | -93.39824 | 2598 ft | 120 kts | 358° |
| 2026-04-27 08:49 | 41.42045 | -93.39866 | 2602 ft | 118 kts | 358° |
| 2026-04-27 08:49 | 41.42876 | -93.39907 | 2603 ft | 122 kts | 358° |
| 2026-04-27 08:49 | 41.43727 | -93.39953 | 2607 ft | 124 kts | 357° |
| 2026-04-27 08:49 | 41.44594 | -93.40027 | 2612 ft | 126 kts | 356° |
| 2026-04-27 08:50 | 41.45459 | -93.40108 | 2616 ft | 127 kts | 354° |
| 2026-04-27 08:50 | 41.46133 | -93.40741 | 2600 ft | 122 kts | 296° |
| 2026-04-27 08:50 | 41.46488 | -93.41747 | 2601 ft | 119 kts | 295° |
| 2026-04-27 08:50 | 41.46868 | -93.42722 | 2603 ft | 120 kts | 296° |
| 2026-04-27 08:51 | 41.47251 | -93.43699 | 2599 ft | 118 kts | 296° |
| 2026-04-27 08:51 | 41.47634 | -93.44683 | 2603 ft | 122 kts | 296° |
| 2026-04-27 08:51 | 41.48021 | -93.45673 | 2605 ft | 120 kts | 296° |
| 2026-04-27 08:51 | 41.48411 | -93.46682 | 2617 ft | 127 kts | 296° |
| 2026-04-27 08:52 | 41.48821 | -93.47733 | 2604 ft | 126 kts | 296° |
| 2026-04-27 08:52 | 41.49217 | -93.48751 | 2605 ft | 121 kts | 295° |
| 2026-04-27 08:52 | 41.49601 | -93.49750 | 2605 ft | 121 kts | 296° |
| 2026-04-27 08:52 | 41.49991 | -93.50757 | 2602 ft | 123 kts | 296° |
| 2026-04-27 08:53 | 41.50380 | -93.51760 | 2602 ft | 121 kts | 296° |
| 2026-04-27 08:53 | 41.50766 | -93.52758 | 2601 ft | 120 kts | 296° |
| 2026-04-27 08:53 | 41.51154 | -93.53761 | 2610 ft | 124 kts | 296° |
| 2026-04-27 08:53 | 41.51552 | -93.54786 | 2611 ft | 124 kts | 296° |
| 2026-04-27 08:54 | 41.51952 | -93.55815 | 2613 ft | 125 kts | 296° |
| 2026-04-27 08:54 | 41.52355 | -93.56852 | 2619 ft | 127 kts | 296° |
| 2026-04-27 08:54 | 41.52758 | -93.57898 | 2611 ft | 126 kts | 296° |
| 2026-04-27 08:54 | 41.53155 | -93.58925 | 2585 ft | 123 kts | 296° |
| 2026-04-27 08:55 | 41.53551 | -93.59954 | 2437 ft | 127 kts | 296° |
| 2026-04-27 08:55 | 41.53958 | -93.61005 | 2295 ft | 128 kts | 296° |
| 2026-04-27 08:55 | 41.54373 | -93.62067 | 2141 ft | 129 kts | 299° |
| 2026-04-27 08:55 | 41.54943 | -93.63001 | 2008 ft | 129 kts | 315° |
| 2026-04-27 08:56 | 41.55578 | -93.63795 | 2003 ft | 121 kts | 316° |
| 2026-04-27 08:56 | 41.56166 | -93.64529 | 1995 ft | 111 kts | 316° |
| 2026-04-27 08:56 | 41.56720 | -93.65218 | 1990 ft | 110 kts | 316° |
| 2026-04-27 08:56 | 41.57285 | -93.65917 | 1989 ft | 107 kts | 316° |
| 2026-04-27 08:57 | 41.58345 | -93.67229 | 1950 ft | 105 kts | 315° |
| 2026-04-27 08:57 | 41.58512 | -93.68120 | 1842 ft | 106 kts | 244° |
| 2026-04-27 08:57 | 41.58081 | -93.68923 | 1745 ft | 107 kts | 232° |
| 2026-04-27 08:58 | 41.57642 | -93.69725 | 1651 ft | 107 kts | 232° |
| 2026-04-27 08:58 | 41.57196 | -93.70532 | 1558 ft | 109 kts | 232° |
| 2026-04-27 08:58 | 41.56571 | -93.70935 | 1454 ft | 103 kts | 167° |
| 2026-04-27 08:58 | 41.56265 | -93.70226 | 1334 ft | 95 kts | 86° |
| 2026-04-27 08:59 | 41.56048 | -93.69533 | 1314 ft | 84 kts | 147° |
| 2026-04-27 08:59 | 41.55662 | -93.69041 | 1345 ft | 78 kts | 126° |
| 2026-04-27 08:59 | 41.55268 | -93.68481 | 1252 ft | 84 kts | 134° |
| 2026-04-27 08:59 | 41.54888 | -93.67903 | 1120 ft | 81 kts | 135° |
| 2026-04-27 09:00 | 41.54515 | -93.67362 | 1029 ft | 79 kts | 134° |
| 2026-04-27 09:00 | 41.54151 | -93.66842 | 959 ft | 73 kts | 133° |
| 2026-04-27 09:00 | 41.53844 | -93.66402 | 934 ft | 55 kts | 134° |
| 2026-04-27 09:00 | 41.53627 | -93.66088 | 936 ft | 40 kts | 130° |
| 2026-04-27 09:01 | 41.53492 | -93.65887 | 939 ft | 16 kts | 122° |
| 2026-04-27 09:01 | 41.53523 | -93.65805 | 940 ft | 6 kts | 53° |
| 2026-04-27 09:01 | 41.53527 | -93.65798 | 940 ft | 1 kts | 54° |
| 2026-04-27 09:01 | 41.53590 | -93.65811 | 938 ft | 19 kts | 311° |
| 2026-04-27 09:02 | 41.53694 | -93.65970 | 937 ft | 25 kts | 314° |
| 2026-04-27 09:02 | 41.53807 | -93.66073 | 934 ft | 16 kts | 47° |
| 2026-04-27 09:02 | 41.53834 | -93.65945 | 933 ft | 14 kts | 22° |
| 2026-04-27 09:02 | 41.53883 | -93.65943 | 934 ft | 0 kts | 358° |
| 2026-04-27 09:03 | 41.53882 | -93.65943 | 934 ft | 0 kts | 169° |